sensor_id;sensor_type;location;lat;lon;timestamp;P1;durP1;ratioP1;P2;durP2;ratioP2
51090;SDS011;37136;43.614;3.908;2023-02-19T00:00:06;39.60;;;25.48;;
51090;SDS011;37136;43.614;3.908;2023-02-19T00:02:33;35.88;;;25.17;;
51090;SDS011;37136;43.614;3.908;2023-02-19T00:04:59;38.05;;;27.23;;
51090;SDS011;37136;43.614;3.908;2023-02-19T00:07:25;40.75;;;27.35;;
51090;SDS011;37136;43.614;3.908;2023-02-19T00:09:51;39.17;;;27.33;;
51090;SDS011;37136;43.614;3.908;2023-02-19T00:12:17;42.25;;;27.02;;
51090;SDS011;37136;43.614;3.908;2023-02-19T00:14:43;41.05;;;27.98;;
51090;SDS011;37136;43.614;3.908;2023-02-19T00:17:09;37.63;;;24.92;;
51090;SDS011;37136;43.614;3.908;2023-02-19T00:19:36;34.63;;;25.00;;
51090;SDS011;37136;43.614;3.908;2023-02-19T00:22:02;31.23;;;22.67;;
51090;SDS011;37136;43.614;3.908;2023-02-19T00:24:28;32.72;;;23.42;;
51090;SDS011;37136;43.614;3.908;2023-02-19T00:26:54;33.65;;;23.17;;
51090;SDS011;37136;43.614;3.908;2023-02-19T00:29:20;37.22;;;23.17;;
51090;SDS011;37136;43.614;3.908;2023-02-19T00:31:46;31.02;;;21.73;;
51090;SDS011;37136;43.614;3.908;2023-02-19T00:34:13;31.58;;;21.65;;
51090;SDS011;37136;43.614;3.908;2023-02-19T00:36:39;31.17;;;20.88;;
51090;SDS011;37136;43.614;3.908;2023-02-19T00:39:06;36.47;;;21.33;;
51090;SDS011;37136;43.614;3.908;2023-02-19T00:41:34;32.90;;;21.88;;
51090;SDS011;37136;43.614;3.908;2023-02-19T00:44:01;35.03;;;20.63;;
51090;SDS011;37136;43.614;3.908;2023-02-19T00:46:28;33.60;;;21.75;;
51090;SDS011;37136;43.614;3.908;2023-02-19T00:48:55;32.65;;;21.67;;
51090;SDS011;37136;43.614;3.908;2023-02-19T00:51:22;35.58;;;22.35;;
51090;SDS011;37136;43.614;3.908;2023-02-19T00:53:48;37.00;;;20.95;;
51090;SDS011;37136;43.614;3.908;2023-02-19T00:56:14;33.38;;;18.70;;
51090;SDS011;37136;43.614;3.908;2023-02-19T00:58:40;33.60;;;22.83;;
51090;SDS011;37136;43.614;3.908;2023-02-19T01:01:06;32.17;;;20.05;;
51090;SDS011;37136;43.614;3.908;2023-02-19T01:03:33;29.20;;;20.35;;
51090;SDS011;37136;43.614;3.908;2023-02-19T01:05:59;29.60;;;20.80;;
51090;SDS011;37136;43.614;3.908;2023-02-19T01:08:26;29.48;;;19.67;;
51090;SDS011;37136;43.614;3.908;2023-02-19T01:10:52;27.83;;;19.52;;
51090;SDS011;37136;43.614;3.908;2023-02-19T01:13:18;27.33;;;18.35;;
51090;SDS011;37136;43.614;3.908;2023-02-19T01:15:44;29.15;;;19.38;;
51090;SDS011;37136;43.614;3.908;2023-02-19T01:18:11;30.77;;;20.13;;
51090;SDS011;37136;43.614;3.908;2023-02-19T01:20:38;30.92;;;19.25;;
51090;SDS011;37136;43.614;3.908;2023-02-19T01:23:04;25.70;;;19.02;;
51090;SDS011;37136;43.614;3.908;2023-02-19T01:25:30;29.98;;;20.05;;
51090;SDS011;37136;43.614;3.908;2023-02-19T01:27:56;27.50;;;18.48;;
51090;SDS011;37136;43.614;3.908;2023-02-19T01:30:22;30.48;;;18.77;;
51090;SDS011;37136;43.614;3.908;2023-02-19T01:32:48;28.92;;;18.90;;
51090;SDS011;37136;43.614;3.908;2023-02-19T01:35:15;30.13;;;18.58;;
51090;SDS011;37136;43.614;3.908;2023-02-19T01:37:41;29.23;;;20.15;;
51090;SDS011;37136;43.614;3.908;2023-02-19T01:40:07;30.35;;;18.67;;
51090;SDS011;37136;43.614;3.908;2023-02-19T01:42:33;34.63;;;19.23;;
51090;SDS011;37136;43.614;3.908;2023-02-19T01:45:14;27.83;;;18.65;;
51090;SDS011;37136;43.614;3.908;2023-02-19T01:47:44;28.58;;;17.92;;
51090;SDS011;37136;43.614;3.908;2023-02-19T01:50:11;29.48;;;18.67;;
51090;SDS011;37136;43.614;3.908;2023-02-19T01:52:37;28.38;;;18.92;;
51090;SDS011;37136;43.614;3.908;2023-02-19T01:55:04;28.42;;;17.92;;
51090;SDS011;37136;43.614;3.908;2023-02-19T01:57:36;27.55;;;18.00;;
51090;SDS011;37136;43.614;3.908;2023-02-19T02:00:05;23.50;;;17.02;;
51090;SDS011;37136;43.614;3.908;2023-02-19T02:02:32;25.83;;;17.40;;
51090;SDS011;37136;43.614;3.908;2023-02-19T02:04:59;28.48;;;18.48;;
51090;SDS011;37136;43.614;3.908;2023-02-19T02:07:26;28.02;;;18.80;;
51090;SDS011;37136;43.614;3.908;2023-02-19T02:10:10;25.70;;;17.75;;
51090;SDS011;37136;43.614;3.908;2023-02-19T02:12:49;27.90;;;17.88;;
51090;SDS011;37136;43.614;3.908;2023-02-19T02:15:16;25.85;;;16.85;;
51090;SDS011;37136;43.614;3.908;2023-02-19T02:17:56;24.10;;;16.55;;
51090;SDS011;37136;43.614;3.908;2023-02-19T02:22:51;28.83;;;16.83;;
51090;SDS011;37136;43.614;3.908;2023-02-19T02:25:26;26.65;;;18.33;;
51090;SDS011;37136;43.614;3.908;2023-02-19T02:30:45;26.58;;;17.48;;
51090;SDS011;37136;43.614;3.908;2023-02-19T02:35:43;28.98;;;18.02;;
51090;SDS011;37136;43.614;3.908;2023-02-19T02:38:10;26.42;;;16.30;;
51090;SDS011;37136;43.614;3.908;2023-02-19T02:40:37;27.98;;;18.25;;
51090;SDS011;37136;43.614;3.908;2023-02-19T02:43:04;22.17;;;16.05;;
51090;SDS011;37136;43.614;3.908;2023-02-19T02:45:31;29.95;;;17.65;;
51090;SDS011;37136;43.614;3.908;2023-02-19T02:50:35;23.77;;;15.35;;
51090;SDS011;37136;43.614;3.908;2023-02-19T02:53:05;30.10;;;16.13;;
51090;SDS011;37136;43.614;3.908;2023-02-19T02:55:51;32.55;;;16.92;;
51090;SDS011;37136;43.614;3.908;2023-02-19T02:58:18;26.70;;;16.95;;
51090;SDS011;37136;43.614;3.908;2023-02-19T03:00:46;21.05;;;15.20;;
51090;SDS011;37136;43.614;3.908;2023-02-19T03:03:32;26.30;;;17.10;;
51090;SDS011;37136;43.614;3.908;2023-02-19T03:06:02;24.00;;;16.53;;
51090;SDS011;37136;43.614;3.908;2023-02-19T03:08:37;25.83;;;16.85;;
51090;SDS011;37136;43.614;3.908;2023-02-19T03:11:05;27.58;;;17.63;;
51090;SDS011;37136;43.614;3.908;2023-02-19T03:13:51;22.75;;;15.57;;
51090;SDS011;37136;43.614;3.908;2023-02-19T03:16:37;25.17;;;15.90;;
51090;SDS011;37136;43.614;3.908;2023-02-19T03:19:24;23.45;;;15.65;;
51090;SDS011;37136;43.614;3.908;2023-02-19T03:21:59;22.08;;;15.68;;
51090;SDS011;37136;43.614;3.908;2023-02-19T03:24:27;30.30;;;17.38;;
51090;SDS011;37136;43.614;3.908;2023-02-19T03:27:13;26.88;;;16.55;;
51090;SDS011;37136;43.614;3.908;2023-02-19T03:29:40;26.98;;;16.70;;
51090;SDS011;37136;43.614;3.908;2023-02-19T03:32:09;21.77;;;15.02;;
51090;SDS011;37136;43.614;3.908;2023-02-19T03:34:37;25.40;;;15.40;;
51090;SDS011;37136;43.614;3.908;2023-02-19T03:37:07;20.13;;;14.88;;
51090;SDS011;37136;43.614;3.908;2023-02-19T03:39:33;24.25;;;15.20;;
51090;SDS011;37136;43.614;3.908;2023-02-19T03:42:19;22.33;;;14.70;;
51090;SDS011;37136;43.614;3.908;2023-02-19T03:47:44;20.67;;;15.35;;
51090;SDS011;37136;43.614;3.908;2023-02-19T03:58:16;21.10;;;14.63;;
51090;SDS011;37136;43.614;3.908;2023-02-19T04:00:50;20.58;;;13.80;;
51090;SDS011;37136;43.614;3.908;2023-02-19T04:08:14;18.73;;;12.98;;
51090;SDS011;37136;43.614;3.908;2023-02-19T04:10:41;20.93;;;13.17;;
51090;SDS011;37136;43.614;3.908;2023-02-19T04:13:10;19.58;;;13.30;;
51090;SDS011;37136;43.614;3.908;2023-02-19T04:15:38;17.45;;;12.52;;
51090;SDS011;37136;43.614;3.908;2023-02-19T04:18:07;22.77;;;13.73;;
51090;SDS011;37136;43.614;3.908;2023-02-19T04:20:35;24.13;;;13.02;;
51090;SDS011;37136;43.614;3.908;2023-02-19T04:23:03;18.05;;;12.85;;
51090;SDS011;37136;43.614;3.908;2023-02-19T04:25:29;18.55;;;12.73;;
51090;SDS011;37136;43.614;3.908;2023-02-19T04:27:56;19.42;;;13.25;;
51090;SDS011;37136;43.614;3.908;2023-02-19T04:30:23;25.65;;;14.23;;
51090;SDS011;37136;43.614;3.908;2023-02-19T04:32:49;19.50;;;12.30;;
51090;SDS011;37136;43.614;3.908;2023-02-19T04:35:15;19.17;;;12.30;;
51090;SDS011;37136;43.614;3.908;2023-02-19T04:37:41;28.00;;;13.73;;
51090;SDS011;37136;43.614;3.908;2023-02-19T04:40:07;20.67;;;13.85;;
51090;SDS011;37136;43.614;3.908;2023-02-19T04:42:34;22.83;;;14.40;;
51090;SDS011;37136;43.614;3.908;2023-02-19T04:45:00;19.17;;;13.65;;
51090;SDS011;37136;43.614;3.908;2023-02-19T04:47:26;23.02;;;15.02;;
51090;SDS011;37136;43.614;3.908;2023-02-19T04:49:52;22.48;;;15.27;;
51090;SDS011;37136;43.614;3.908;2023-02-19T04:52:18;22.00;;;14.30;;
51090;SDS011;37136;43.614;3.908;2023-02-19T04:54:44;23.13;;;14.57;;
51090;SDS011;37136;43.614;3.908;2023-02-19T04:57:10;19.60;;;13.75;;
51090;SDS011;37136;43.614;3.908;2023-02-19T04:59:36;20.95;;;13.43;;
51090;SDS011;37136;43.614;3.908;2023-02-19T05:02:02;23.20;;;15.07;;
51090;SDS011;37136;43.614;3.908;2023-02-19T05:04:28;19.25;;;13.20;;
51090;SDS011;37136;43.614;3.908;2023-02-19T05:06:54;16.80;;;11.75;;
51090;SDS011;37136;43.614;3.908;2023-02-19T05:09:21;17.25;;;12.60;;
51090;SDS011;37136;43.614;3.908;2023-02-19T05:11:47;17.10;;;12.38;;
51090;SDS011;37136;43.614;3.908;2023-02-19T05:14:13;19.00;;;11.93;;
51090;SDS011;37136;43.614;3.908;2023-02-19T05:16:39;16.25;;;11.55;;
51090;SDS011;37136;43.614;3.908;2023-02-19T05:19:05;19.35;;;11.25;;
51090;SDS011;37136;43.614;3.908;2023-02-19T05:21:31;17.63;;;11.15;;
51090;SDS011;37136;43.614;3.908;2023-02-19T05:23:57;16.75;;;12.27;;
51090;SDS011;37136;43.614;3.908;2023-02-19T05:26:23;17.30;;;12.25;;
51090;SDS011;37136;43.614;3.908;2023-02-19T05:28:51;15.32;;;10.50;;
51090;SDS011;37136;43.614;3.908;2023-02-19T05:31:18;17.67;;;11.48;;
51090;SDS011;37136;43.614;3.908;2023-02-19T05:33:44;17.38;;;12.48;;
51090;SDS011;37136;43.614;3.908;2023-02-19T05:36:14;16.58;;;10.55;;
51090;SDS011;37136;43.614;3.908;2023-02-19T05:38:41;18.70;;;11.60;;
51090;SDS011;37136;43.614;3.908;2023-02-19T05:43:37;15.27;;;10.68;;
51090;SDS011;37136;43.614;3.908;2023-02-19T05:46:03;16.63;;;10.90;;
51090;SDS011;37136;43.614;3.908;2023-02-19T05:48:30;16.00;;;10.60;;
51090;SDS011;37136;43.614;3.908;2023-02-19T05:51:00;17.25;;;10.70;;
51090;SDS011;37136;43.614;3.908;2023-02-19T05:53:27;16.58;;;10.75;;
51090;SDS011;37136;43.614;3.908;2023-02-19T05:55:53;14.65;;;11.35;;
51090;SDS011;37136;43.614;3.908;2023-02-19T05:58:19;14.50;;;10.73;;
51090;SDS011;37136;43.614;3.908;2023-02-19T06:00:45;19.63;;;11.20;;
51090;SDS011;37136;43.614;3.908;2023-02-19T06:03:11;17.63;;;10.18;;
51090;SDS011;37136;43.614;3.908;2023-02-19T06:05:37;17.48;;;10.68;;
51090;SDS011;37136;43.614;3.908;2023-02-19T06:08:03;19.25;;;11.07;;
51090;SDS011;37136;43.614;3.908;2023-02-19T06:10:29;13.90;;;10.57;;
51090;SDS011;37136;43.614;3.908;2023-02-19T06:12:55;18.60;;;11.27;;
51090;SDS011;37136;43.614;3.908;2023-02-19T06:15:22;18.77;;;11.40;;
51090;SDS011;37136;43.614;3.908;2023-02-19T06:17:48;17.83;;;12.20;;
51090;SDS011;37136;43.614;3.908;2023-02-19T06:20:14;16.40;;;11.23;;
51090;SDS011;37136;43.614;3.908;2023-02-19T06:22:40;15.77;;;11.38;;
51090;SDS011;37136;43.614;3.908;2023-02-19T06:25:06;20.50;;;11.18;;
51090;SDS011;37136;43.614;3.908;2023-02-19T06:27:36;12.57;;;9.23;;
51090;SDS011;37136;43.614;3.908;2023-02-19T06:30:02;15.48;;;10.23;;
51090;SDS011;37136;43.614;3.908;2023-02-19T06:32:28;23.52;;;13.30;;
51090;SDS011;37136;43.614;3.908;2023-02-19T06:34:54;16.17;;;10.35;;
51090;SDS011;37136;43.614;3.908;2023-02-19T06:37:20;15.05;;;10.38;;
51090;SDS011;37136;43.614;3.908;2023-02-19T06:39:47;25.08;;;10.57;;
51090;SDS011;37136;43.614;3.908;2023-02-19T06:42:13;17.73;;;11.85;;
51090;SDS011;37136;43.614;3.908;2023-02-19T06:44:39;13.70;;;9.98;;
51090;SDS011;37136;43.614;3.908;2023-02-19T06:47:05;16.30;;;11.20;;
51090;SDS011;37136;43.614;3.908;2023-02-19T06:49:31;18.40;;;11.40;;
51090;SDS011;37136;43.614;3.908;2023-02-19T06:51:57;17.27;;;11.45;;
51090;SDS011;37136;43.614;3.908;2023-02-19T06:54:24;13.85;;;10.32;;
51090;SDS011;37136;43.614;3.908;2023-02-19T06:56:51;15.77;;;10.48;;
51090;SDS011;37136;43.614;3.908;2023-02-19T06:59:17;15.70;;;10.38;;
51090;SDS011;37136;43.614;3.908;2023-02-19T07:01:43;15.85;;;10.38;;
51090;SDS011;37136;43.614;3.908;2023-02-19T07:04:10;15.73;;;11.15;;
51090;SDS011;37136;43.614;3.908;2023-02-19T07:06:36;14.57;;;10.93;;
51090;SDS011;37136;43.614;3.908;2023-02-19T07:09:03;15.45;;;9.77;;
51090;SDS011;37136;43.614;3.908;2023-02-19T07:11:32;14.88;;;10.10;;
51090;SDS011;37136;43.614;3.908;2023-02-19T07:13:59;15.18;;;11.02;;
51090;SDS011;37136;43.614;3.908;2023-02-19T07:16:25;16.80;;;10.43;;
51090;SDS011;37136;43.614;3.908;2023-02-19T07:18:51;16.67;;;10.10;;
51090;SDS011;37136;43.614;3.908;2023-02-19T07:21:18;17.08;;;10.43;;
51090;SDS011;37136;43.614;3.908;2023-02-19T07:23:44;14.95;;;10.10;;
51090;SDS011;37136;43.614;3.908;2023-02-19T07:26:10;13.55;;;9.13;;
51090;SDS011;37136;43.614;3.908;2023-02-19T07:28:39;15.85;;;10.10;;
51090;SDS011;37136;43.614;3.908;2023-02-19T07:31:05;15.50;;;9.65;;
51090;SDS011;37136;43.614;3.908;2023-02-19T07:33:31;10.90;;;8.80;;
51090;SDS011;37136;43.614;3.908;2023-02-19T07:35:57;14.35;;;10.10;;
51090;SDS011;37136;43.614;3.908;2023-02-19T07:38:23;12.82;;;9.75;;
51090;SDS011;37136;43.614;3.908;2023-02-19T07:40:54;15.32;;;10.40;;
51090;SDS011;37136;43.614;3.908;2023-02-19T07:43:20;13.95;;;10.25;;
51090;SDS011;37136;43.614;3.908;2023-02-19T07:45:47;18.13;;;11.60;;
51090;SDS011;37136;43.614;3.908;2023-02-19T07:48:13;19.33;;;10.77;;
51090;SDS011;37136;43.614;3.908;2023-02-19T07:50:39;15.05;;;10.75;;
51090;SDS011;37136;43.614;3.908;2023-02-19T07:53:05;15.02;;;10.68;;
51090;SDS011;37136;43.614;3.908;2023-02-19T07:55:32;16.88;;;10.73;;
51090;SDS011;37136;43.614;3.908;2023-02-19T07:57:59;16.27;;;10.77;;
51090;SDS011;37136;43.614;3.908;2023-02-19T08:00:25;17.30;;;11.30;;
51090;SDS011;37136;43.614;3.908;2023-02-19T08:02:52;15.43;;;11.18;;
51090;SDS011;37136;43.614;3.908;2023-02-19T08:05:24;14.40;;;10.60;;
51090;SDS011;37136;43.614;3.908;2023-02-19T08:07:50;14.85;;;10.88;;
51090;SDS011;37136;43.614;3.908;2023-02-19T08:10:16;17.17;;;11.23;;
51090;SDS011;37136;43.614;3.908;2023-02-19T08:13:01;20.65;;;12.95;;
51090;SDS011;37136;43.614;3.908;2023-02-19T08:15:53;15.68;;;11.65;;
51090;SDS011;37136;43.614;3.908;2023-02-19T08:18:21;18.35;;;11.25;;
51090;SDS011;37136;43.614;3.908;2023-02-19T08:20:47;18.15;;;12.15;;
51090;SDS011;37136;43.614;3.908;2023-02-19T08:23:14;21.48;;;11.63;;
51090;SDS011;37136;43.614;3.908;2023-02-19T08:25:40;18.67;;;11.27;;
51090;SDS011;37136;43.614;3.908;2023-02-19T08:28:07;14.20;;;10.63;;
51090;SDS011;37136;43.614;3.908;2023-02-19T08:30:35;19.42;;;11.93;;
51090;SDS011;37136;43.614;3.908;2023-02-19T08:33:02;13.20;;;11.15;;
51090;SDS011;37136;43.614;3.908;2023-02-19T08:35:29;19.40;;;11.32;;
51090;SDS011;37136;43.614;3.908;2023-02-19T08:37:55;16.13;;;10.50;;
51090;SDS011;37136;43.614;3.908;2023-02-19T08:40:22;16.02;;;9.77;;
51090;SDS011;37136;43.614;3.908;2023-02-19T08:42:48;11.70;;;9.93;;
51090;SDS011;37136;43.614;3.908;2023-02-19T08:45:14;12.52;;;9.20;;
51090;SDS011;37136;43.614;3.908;2023-02-19T08:47:40;12.07;;;9.30;;
51090;SDS011;37136;43.614;3.908;2023-02-19T08:50:08;14.70;;;9.32;;
51090;SDS011;37136;43.614;3.908;2023-02-19T08:52:34;13.55;;;8.82;;
51090;SDS011;37136;43.614;3.908;2023-02-19T08:55:01;15.45;;;9.90;;
51090;SDS011;37136;43.614;3.908;2023-02-19T08:57:28;15.80;;;9.48;;
51090;SDS011;37136;43.614;3.908;2023-02-19T08:59:54;12.77;;;9.15;;
51090;SDS011;37136;43.614;3.908;2023-02-19T09:02:22;10.57;;;7.93;;
51090;SDS011;37136;43.614;3.908;2023-02-19T09:04:48;12.63;;;8.55;;
51090;SDS011;37136;43.614;3.908;2023-02-19T09:07:14;12.15;;;7.93;;
51090;SDS011;37136;43.614;3.908;2023-02-19T09:09:41;13.55;;;8.07;;
51090;SDS011;37136;43.614;3.908;2023-02-19T09:12:07;11.13;;;8.00;;
51090;SDS011;37136;43.614;3.908;2023-02-19T09:14:34;9.77;;;7.15;;
51090;SDS011;37136;43.614;3.908;2023-02-19T09:17:01;9.32;;;6.65;;
51090;SDS011;37136;43.614;3.908;2023-02-19T09:19:28;8.98;;;6.75;;
51090;SDS011;37136;43.614;3.908;2023-02-19T09:21:54;7.82;;;6.07;;
51090;SDS011;37136;43.614;3.908;2023-02-19T09:24:20;13.73;;;7.22;;
51090;SDS011;37136;43.614;3.908;2023-02-19T09:26:53;13.02;;;7.30;;
51090;SDS011;37136;43.614;3.908;2023-02-19T09:29:20;8.98;;;6.25;;
51090;SDS011;37136;43.614;3.908;2023-02-19T09:31:46;8.65;;;6.85;;
51090;SDS011;37136;43.614;3.908;2023-02-19T09:34:13;9.57;;;6.35;;
51090;SDS011;37136;43.614;3.908;2023-02-19T09:36:39;10.35;;;6.85;;
51090;SDS011;37136;43.614;3.908;2023-02-19T09:39:05;10.07;;;6.72;;
51090;SDS011;37136;43.614;3.908;2023-02-19T09:41:33;10.48;;;7.15;;
51090;SDS011;37136;43.614;3.908;2023-02-19T09:44:01;9.30;;;6.80;;
51090;SDS011;37136;43.614;3.908;2023-02-19T09:46:32;10.23;;;7.03;;
51090;SDS011;37136;43.614;3.908;2023-02-19T09:49:06;10.07;;;7.75;;
51090;SDS011;37136;43.614;3.908;2023-02-19T09:51:36;13.77;;;6.55;;
51090;SDS011;37136;43.614;3.908;2023-02-19T09:54:05;9.43;;;6.85;;
51090;SDS011;37136;43.614;3.908;2023-02-19T09:56:32;11.20;;;6.28;;
51090;SDS011;37136;43.614;3.908;2023-02-19T09:58:59;9.35;;;6.00;;
51090;SDS011;37136;43.614;3.908;2023-02-19T10:01:27;8.45;;;6.55;;
51090;SDS011;37136;43.614;3.908;2023-02-19T10:03:55;24.05;;;6.35;;
51090;SDS011;37136;43.614;3.908;2023-02-19T10:06:22;11.40;;;6.60;;
51090;SDS011;37136;43.614;3.908;2023-02-19T10:08:49;9.20;;;5.80;;
51090;SDS011;37136;43.614;3.908;2023-02-19T10:11:16;7.05;;;5.68;;
51090;SDS011;37136;43.614;3.908;2023-02-19T10:13:44;7.70;;;5.45;;
51090;SDS011;37136;43.614;3.908;2023-02-19T10:16:11;9.00;;;5.63;;
51090;SDS011;37136;43.614;3.908;2023-02-19T10:18:41;8.48;;;5.10;;
51090;SDS011;37136;43.614;3.908;2023-02-19T10:21:13;9.02;;;5.32;;
51090;SDS011;37136;43.614;3.908;2023-02-19T10:23:40;11.07;;;5.80;;
51090;SDS011;37136;43.614;3.908;2023-02-19T10:26:06;7.32;;;5.70;;
51090;SDS011;37136;43.614;3.908;2023-02-19T10:28:33;7.45;;;5.18;;
51090;SDS011;37136;43.614;3.908;2023-02-19T10:31:00;7.38;;;5.55;;
51090;SDS011;37136;43.614;3.908;2023-02-19T10:33:26;6.75;;;5.10;;
51090;SDS011;37136;43.614;3.908;2023-02-19T10:38:19;7.68;;;5.60;;
51090;SDS011;37136;43.614;3.908;2023-02-19T10:40:47;8.80;;;5.47;;
51090;SDS011;37136;43.614;3.908;2023-02-19T10:43:25;6.78;;;5.00;;
51090;SDS011;37136;43.614;3.908;2023-02-19T10:45:57;6.25;;;5.55;;
51090;SDS011;37136;43.614;3.908;2023-02-19T10:48:28;6.95;;;5.43;;
51090;SDS011;37136;43.614;3.908;2023-02-19T10:50:56;9.75;;;5.82;;
51090;SDS011;37136;43.614;3.908;2023-02-19T10:53:42;9.25;;;5.05;;
51090;SDS011;37136;43.614;3.908;2023-02-19T10:56:12;9.60;;;6.00;;
51090;SDS011;37136;43.614;3.908;2023-02-19T10:58:39;7.20;;;5.20;;
51090;SDS011;37136;43.614;3.908;2023-02-19T11:01:16;6.47;;;4.30;;
51090;SDS011;37136;43.614;3.908;2023-02-19T11:03:45;7.43;;;5.20;;
51090;SDS011;37136;43.614;3.908;2023-02-19T11:06:12;7.63;;;4.72;;
51090;SDS011;37136;43.614;3.908;2023-02-19T11:13:56;10.45;;;5.53;;
51090;SDS011;37136;43.614;3.908;2023-02-19T11:16:23;7.32;;;4.93;;
51090;SDS011;37136;43.614;3.908;2023-02-19T11:18:55;9.27;;;4.88;;
51090;SDS011;37136;43.614;3.908;2023-02-19T11:21:25;12.20;;;4.85;;
51090;SDS011;37136;43.614;3.908;2023-02-19T11:23:56;7.45;;;4.90;;
51090;SDS011;37136;43.614;3.908;2023-02-19T11:26:23;6.28;;;4.03;;
51090;SDS011;37136;43.614;3.908;2023-02-19T11:29:00;8.77;;;4.60;;
51090;SDS011;37136;43.614;3.908;2023-02-19T11:31:30;7.43;;;4.50;;
51090;SDS011;37136;43.614;3.908;2023-02-19T11:33:59;6.32;;;4.38;;
51090;SDS011;37136;43.614;3.908;2023-02-19T11:38:51;6.30;;;5.10;;
51090;SDS011;37136;43.614;3.908;2023-02-19T11:54:37;4.45;;;3.45;;
51090;SDS011;37136;43.614;3.908;2023-02-19T11:59:47;8.27;;;3.95;;
51090;SDS011;37136;43.614;3.908;2023-02-19T12:10:01;5.32;;;3.13;;
51090;SDS011;37136;43.614;3.908;2023-02-19T12:28:00;4.13;;;3.33;;
51090;SDS011;37136;43.614;3.908;2023-02-19T12:38:01;5.65;;;3.60;;
51090;SDS011;37136;43.614;3.908;2023-02-19T12:43:16;4.10;;;2.92;;
51090;SDS011;37136;43.614;3.908;2023-02-19T12:51:22;4.40;;;3.10;;
51090;SDS011;37136;43.614;3.908;2023-02-19T12:53:53;5.00;;;3.25;;
51090;SDS011;37136;43.614;3.908;2023-02-19T12:56:41;4.43;;;3.53;;
51090;SDS011;37136;43.614;3.908;2023-02-19T12:59:10;4.35;;;2.85;;
51090;SDS011;37136;43.614;3.908;2023-02-19T13:02:24;3.85;;;3.20;;
51090;SDS011;37136;43.614;3.908;2023-02-19T13:04:36;4.30;;;2.85;;
51090;SDS011;37136;43.614;3.908;2023-02-19T13:12:13;5.88;;;3.30;;
51090;SDS011;37136;43.614;3.908;2023-02-19T13:14:44;4.30;;;3.10;;
51090;SDS011;37136;43.614;3.908;2023-02-19T13:17:24;5.80;;;3.15;;
51090;SDS011;37136;43.614;3.908;2023-02-19T13:19:54;4.00;;;3.53;;
51090;SDS011;37136;43.614;3.908;2023-02-19T13:22:38;4.15;;;3.75;;
51090;SDS011;37136;43.614;3.908;2023-02-19T13:25:27;6.60;;;3.13;;
51090;SDS011;37136;43.614;3.908;2023-02-19T13:31:13;4.93;;;3.50;;
51090;SDS011;37136;43.614;3.908;2023-02-19T13:33:38;4.32;;;3.15;;
51090;SDS011;37136;43.614;3.908;2023-02-19T13:38:51;4.57;;;3.90;;
51090;SDS011;37136;43.614;3.908;2023-02-19T13:41:18;3.10;;;2.60;;
51090;SDS011;37136;43.614;3.908;2023-02-19T13:43:44;4.18;;;2.90;;
51090;SDS011;37136;43.614;3.908;2023-02-19T13:46:12;4.95;;;3.35;;
51090;SDS011;37136;43.614;3.908;2023-02-19T13:48:39;5.10;;;3.00;;
51090;SDS011;37136;43.614;3.908;2023-02-19T14:04:21;4.00;;;3.10;;
51090;SDS011;37136;43.614;3.908;2023-02-19T14:17:25;3.65;;;3.10;;
51090;SDS011;37136;43.614;3.908;2023-02-19T14:19:53;5.65;;;3.47;;
51090;SDS011;37136;43.614;3.908;2023-02-19T14:25:05;5.15;;;3.08;;
51090;SDS011;37136;43.614;3.908;2023-02-19T14:27:34;4.30;;;3.35;;
51090;SDS011;37136;43.614;3.908;2023-02-19T14:30:00;5.68;;;3.03;;
51090;SDS011;37136;43.614;3.908;2023-02-19T14:32:26;3.83;;;2.78;;
51090;SDS011;37136;43.614;3.908;2023-02-19T14:34:53;6.47;;;2.80;;
51090;SDS011;37136;43.614;3.908;2023-02-19T14:37:19;4.35;;;3.03;;
51090;SDS011;37136;43.614;3.908;2023-02-19T14:39:45;8.27;;;2.72;;
51090;SDS011;37136;43.614;3.908;2023-02-19T14:42:21;4.97;;;2.78;;
51090;SDS011;37136;43.614;3.908;2023-02-19T14:44:57;4.80;;;3.67;;
51090;SDS011;37136;43.614;3.908;2023-02-19T14:47:25;3.75;;;2.65;;
51090;SDS011;37136;43.614;3.908;2023-02-19T14:49:53;4.70;;;2.83;;
51090;SDS011;37136;43.614;3.908;2023-02-19T14:57:38;3.40;;;2.63;;
51090;SDS011;37136;43.614;3.908;2023-02-19T15:02:50;3.08;;;2.30;;
51090;SDS011;37136;43.614;3.908;2023-02-19T15:05:24;3.05;;;2.30;;
51090;SDS011;37136;43.614;3.908;2023-02-19T15:07:51;2.08;;;1.90;;
51090;SDS011;37136;43.614;3.908;2023-02-19T15:10:18;2.72;;;2.28;;
51090;SDS011;37136;43.614;3.908;2023-02-19T15:12:45;2.20;;;1.98;;
51090;SDS011;37136;43.614;3.908;2023-02-19T15:15:16;2.50;;;1.98;;
51090;SDS011;37136;43.614;3.908;2023-02-19T15:17:44;3.60;;;2.63;;
51090;SDS011;37136;43.614;3.908;2023-02-19T15:20:11;2.90;;;2.28;;
51090;SDS011;37136;43.614;3.908;2023-02-19T15:22:41;2.22;;;2.03;;
51090;SDS011;37136;43.614;3.908;2023-02-19T15:25:10;5.60;;;2.55;;
51090;SDS011;37136;43.614;3.908;2023-02-19T15:27:37;7.30;;;3.35;;
51090;SDS011;37136;43.614;3.908;2023-02-19T15:30:14;5.28;;;3.90;;
51090;SDS011;37136;43.614;3.908;2023-02-19T15:32:43;7.25;;;3.83;;
51090;SDS011;37136;43.614;3.908;2023-02-19T15:35:16;11.57;;;4.93;;
51090;SDS011;37136;43.614;3.908;2023-02-19T15:37:43;6.00;;;3.65;;
51090;SDS011;37136;43.614;3.908;2023-02-19T15:40:11;3.83;;;3.03;;
51090;SDS011;37136;43.614;3.908;2023-02-19T15:42:38;5.47;;;3.90;;
51090;SDS011;37136;43.614;3.908;2023-02-19T15:47:50;4.45;;;3.10;;
51090;SDS011;37136;43.614;3.908;2023-02-19T15:52:47;12.48;;;6.88;;
51090;SDS011;37136;43.614;3.908;2023-02-19T15:57:41;7.65;;;4.63;;
51090;SDS011;37136;43.614;3.908;2023-02-19T16:00:51;5.57;;;2.72;;
51090;SDS011;37136;43.614;3.908;2023-02-19T16:02:58;1.75;;;1.63;;
51090;SDS011;37136;43.614;3.908;2023-02-19T16:05:25;1.80;;;1.65;;
51090;SDS011;37136;43.614;3.908;2023-02-19T16:10:36;1.77;;;1.45;;
51090;SDS011;37136;43.614;3.908;2023-02-19T16:13:03;6.65;;;1.90;;
51090;SDS011;37136;43.614;3.908;2023-02-19T16:15:31;1.42;;;1.33;;
51090;SDS011;37136;43.614;3.908;2023-02-19T16:17:58;2.00;;;1.38;;
51090;SDS011;37136;43.614;3.908;2023-02-19T16:20:28;2.38;;;1.58;;
51090;SDS011;37136;43.614;3.908;2023-02-19T16:22:59;4.47;;;1.88;;
51090;SDS011;37136;43.614;3.908;2023-02-19T16:25:33;1.58;;;1.48;;
51090;SDS011;37136;43.614;3.908;2023-02-19T16:28:08;3.20;;;1.60;;
51090;SDS011;37136;43.614;3.908;2023-02-19T16:30:35;2.25;;;1.67;;
51090;SDS011;37136;43.614;3.908;2023-02-19T16:35:46;2.40;;;1.30;;
51090;SDS011;37136;43.614;3.908;2023-02-19T16:38:14;2.33;;;1.40;;
51090;SDS011;37136;43.614;3.908;2023-02-19T16:45:45;1.27;;;1.10;;
51090;SDS011;37136;43.614;3.908;2023-02-19T16:48:12;2.90;;;1.50;;
51090;SDS011;37136;43.614;3.908;2023-02-19T16:50:39;2.60;;;1.15;;
51090;SDS011;37136;43.614;3.908;2023-02-19T16:53:06;3.63;;;1.40;;
51090;SDS011;37136;43.614;3.908;2023-02-19T16:55:32;2.05;;;1.40;;
51090;SDS011;37136;43.614;3.908;2023-02-19T16:57:59;1.80;;;1.20;;
51090;SDS011;37136;43.614;3.908;2023-02-19T17:00:29;1.73;;;1.50;;
51090;SDS011;37136;43.614;3.908;2023-02-19T17:02:56;2.33;;;1.52;;
51090;SDS011;37136;43.614;3.908;2023-02-19T17:05:24;1.45;;;1.35;;
51090;SDS011;37136;43.614;3.908;2023-02-19T17:07:51;3.38;;;1.63;;
51090;SDS011;37136;43.614;3.908;2023-02-19T17:10:18;2.33;;;1.48;;
51090;SDS011;37136;43.614;3.908;2023-02-19T17:12:47;1.92;;;1.50;;
51090;SDS011;37136;43.614;3.908;2023-02-19T17:15:13;1.90;;;1.33;;
51090;SDS011;37136;43.614;3.908;2023-02-19T17:17:39;3.47;;;1.45;;